Time;durP1;ratioP1;P1;durP2;ratioP2;P2;SDS_P1;SDS_P2;PMS_P1;PMS_P2;Temp;Humidity;BMP_temperature;BMP_pressure;BME280_temperature;BME280_humidity;BME280_pressure;Samples;Min_cycle;Max_cycle;Signal;HPM_P1;HPM_P2
2023/02/12 00:00:08;;;;;;;;;;;;;;;18.14;65.14;102640.70;2324064;76;50200;-74
2023/02/12 00:03:10;;;;;;;;;;;;;;;18.10;65.25;102633.89;2323898;76;50264;-74
2023/02/12 00:06:12;;;;;;;;;;;;;;;18.06;65.44;102633.31;2324049;76;50337;-74
2023/02/12 00:09:13;;;;;;;;;;;;;;;18.03;65.51;102634.92;2324077;76;51554;-73
2023/02/12 00:12:15;;;;;;;;;;;;;;;17.99;66.16;102636.15;2323874;76;51474;-74
2023/02/12 00:15:16;;;;;;;;;;;;;;;17.96;66.11;102636.42;2320979;76;52315;-73
2023/02/12 00:18:18;;;;;;;;;;;;;;;17.99;65.97;102644.19;2321125;76;50609;-75
2023/02/12 00:21:20;;;;;;;;;;;;;;;18.06;65.75;102652.06;2297122;76;50976;-74
2023/02/12 00:24:21;;;;;;;;;;;;;;;18.13;65.64;102651.53;2309040;76;50521;-73
2023/02/12 00:27:23;;;;;;;;;;;;;;;18.22;65.34;102660.13;2312588;76;50718;-73
2023/02/12 00:30:24;;;;;;;;;;;;;;;18.20;65.29;102658.06;2306118;77;51389;-74
2023/02/12 00:33:26;;;;;;;;;;;;;;;18.22;65.16;102658.30;2305897;77;51514;-73
2023/02/12 00:36:29;;;;;;;;;;;;;;;18.19;65.20;102657.22;2312606;76;51528;-73
2023/02/12 00:39:30;;;;;;;;;;;;;;;18.18;65.22;102660.02;2306054;77;50335;-76
2023/02/12 00:42:32;;;;;;;;;;;;;;;18.14;65.35;102656.77;2295916;76;50208;-73
2023/02/12 00:45:33;;;;;;;;;;;;;;;18.11;65.44;102650.80;2294607;77;50628;-74
2023/02/12 00:48:35;;;;;;;;;;;;;;;18.08;65.65;102653.75;2294542;76;51502;-74
2023/02/12 00:51:37;;;;;;;;;;;;;;;18.01;66.49;102649.42;2294964;76;50727;-72
2023/02/12 00:54:38;;;;;;;;;;;;;;;17.99;66.49;102657.58;2328303;76;50639;-73
2023/02/12 00:57:40;;;;;;;;;;;;;;;17.99;66.21;102664.27;2335174;75;49644;-74
2023/02/12 01:00:41;;;;;;;;;;;;;;;18.09;65.95;102670.20;2341909;75;50730;-73
2023/02/12 01:03:43;;;;;;;;;;;;;;;18.16;65.74;102675.38;2341727;76;50366;-73
2023/02/12 01:06:45;;;;;;;;;;;;;;;18.27;65.42;102686.05;2309731;75;49543;-73
2023/02/12 01:09:46;;;;;;;;;;;;;;;18.28;65.29;102693.09;2309743;76;51780;-73
2023/02/12 01:12:48;;;;;;;;;;;;;;;18.28;65.21;102701.13;2309878;76;50420;-73
2023/02/12 01:15:49;;;;;;;;;;;;;;;18.29;65.23;102706.87;2341784;76;50223;-72
2023/02/12 01:18:52;;;;;;;;;;;;;;;18.27;65.29;102698.10;2309944;76;50412;-73
2023/02/12 01:21:53;;;;;;;;;;;;;;;18.24;65.41;102698.38;2341710;76;51503;-73
2023/02/12 01:24:55;;;;;;;;;;;;;;;18.21;65.51;102703.97;2335349;75;50356;-74
2023/02/12 01:27:56;;;;;;;;;;;;;;;18.18;65.76;102701.06;2336245;74;50355;-73
2023/02/12 01:30:58;;;;;;;;;;;;;;;18.13;65.79;102700.59;2336289;75;50401;-74
2023/02/12 01:34:00;;;;;;;;;;;;;;;18.08;66.50;102700.14;2335968;76;51561;-74
2023/02/12 01:37:01;;;;;;;;;;;;;;;18.08;66.20;102701.97;2341891;75;50246;-74
2023/02/12 01:40:03;;;;;;;;;;;;;;;18.12;66.13;102711.47;2342033;74;50734;-73
2023/02/12 01:43:06;;;;;;;;;;;;;;;18.15;66.11;102708.52;2333259;75;50144;-74
2023/02/12 01:46:07;;;;;;;;;;;;;;;18.26;65.89;102719.16;2306271;76;52351;-73
2023/02/12 01:49:11;;;;;;;;;;;;;;;18.30;65.64;102723.30;2332632;75;50597;-72
2023/02/12 01:52:14;;;;;;;;;;;;;;;18.31;65.58;102724.98;2339690;76;51355;-74
2023/02/12 01:55:15;;;;;;;;;;;;;;;18.31;65.57;102727.66;2332066;76;51493;-74
2023/02/12 01:58:17;;;;;;;;;;;;;;;18.25;65.73;102716.98;2317072;76;51629;-75
2023/02/12 02:01:23;;;;;;;;;;;;;;;18.21;65.88;102723.59;2335644;76;51486;-75
2023/02/12 02:04:27;;;;;;;;;;;;;;;18.17;65.88;102730.19;2343407;76;50334;-75
2023/02/12 02:07:28;;;;;;;;;;;;;;;18.12;65.90;102726.20;2345666;76;51579;-73
2023/02/12 02:10:30;;;;;;;;;;;;;;;18.09;66.08;102736.69;2352668;75;51003;-74
2023/02/12 02:16:55;;;;;;;;;;;;;;;18.04;66.67;102736.22;2331115;75;22463;-75
2023/02/12 02:20:01;;;;;;;;;;;;;;;18.08;66.43;102742.16;2321928;76;51504;-73
2023/02/12 02:23:07;;;;;;;;;;;;;;;18.14;66.26;102738.48;2294783;76;49665;-73
2023/02/12 02:26:29;;;;;;;;;;;;;;;18.23;65.99;102738.19;2327936;76;50403;-73
2023/02/12 02:29:49;;;;;;;;;;;;;;;18.28;65.79;102731.95;2345379;75;50418;-72
2023/02/12 02:33:07;;;;;;;;;;;;;;;18.27;65.75;102738.30;2345424;76;50406;-74
2023/02/12 02:36:17;;;;;;;;;;;;;;;18.25;65.82;102730.88;2345595;75;51601;-73
2023/02/12 02:39:23;;;;;;;;;;;;;;;18.21;65.83;102733.44;2345616;76;51505;-73
2023/02/12 02:42:26;;;;;;;;;;;;;;;18.17;65.91;102732.02;2345283;76;50785;-73
2023/02/12 02:45:29;;;;;;;;;;;;;;;18.13;65.96;102736.77;2345368;75;50696;-73
2023/02/12 02:48:35;;;;;;;;;;;;;;;18.12;66.12;102736.91;2325323;76;52529;-73
2023/02/12 02:51:38;;;;;;;;;;;;;;;18.08;66.50;102731.44;2344632;75;51849;-73
2023/02/12 02:54:44;;;;;;;;;;;;;;;18.03;66.85;102739.86;2338414;75;54883;-74
2023/02/12 02:57:55;;;;;;;;;;;;;;;18.04;66.55;102738.90;2344885;75;50312;-74
2023/02/12 03:01:04;;;;;;;;;;;;;;;18.11;66.40;102740.55;2336567;75;50158;-74
2023/02/12 03:04:06;;;;;;;;;;;;;;;18.19;66.18;102738.11;2325606;76;50256;-74
2023/02/12 03:07:12;;;;;;;;;;;;;;;18.29;65.80;102747.06;2345322;76;51986;-73
2023/02/12 03:10:16;;;;;;;;;;;;;;;18.30;65.70;102761.31;2345268;75;51139;-74
2023/02/12 03:13:22;;;;;;;;;;;;;;;18.31;65.59;102760.31;2336092;76;51038;-75
2023/02/12 03:16:25;;;;;;;;;;;;;;;18.27;65.78;102772.64;2345569;76;50367;-74
2023/02/12 03:19:28;;;;;;;;;;;;;;;18.23;65.82;102766.33;2340810;75;50432;-74
2023/02/12 03:22:37;;;;;;;;;;;;;;;18.18;65.91;102765.86;2331502;76;51523;-74
2023/02/12 03:25:40;;;;;;;;;;;;;;;18.16;66.00;102766.01;2312376;76;51080;-74
2023/02/12 03:28:42;;;;;;;;;;;;;;;18.13;66.15;102774.28;2304072;76;51493;-74
2023/02/12 03:31:45;;;;;;;;;;;;;;;18.10;66.46;102771.02;2305832;77;51471;-74
2023/02/12 03:34:51;;;;;;;;;;;;;;;18.03;66.92;102780.04;2305605;76;51707;-75
2023/02/12 03:37:57;;;;;;;;;;;;;;;18.00;66.82;102775.78;2286584;77;51191;-74
2023/02/12 03:41:06;;;;;;;;;;;;;;;18.08;66.55;102775.64;2305850;77;50329;-74
2023/02/12 03:44:12;;;;;;;;;;;;;;;18.18;66.23;102772.55;2295192;76;51454;-75
2023/02/12 03:47:24;;;;;;;;;;;;;;;18.23;66.01;102779.72;2294242;76;50328;-73
2023/02/12 03:50:33;;;;;;;;;;;;;;;18.27;65.80;102779.34;2280652;76;51801;-74
2023/02/12 03:53:34;;;;;;;;;;;;;;;18.25;65.85;102789.33;2317124;76;50713;-75
2023/02/12 03:56:51;;;;;;;;;;;;;;;18.22;65.88;102786.08;2335580;76;50674;-74
2023/02/12 03:59:53;;;;;;;;;;;;;;;18.18;65.93;102786.80;2339335;76;51622;-75
2023/02/12 04:02:55;;;;;;;;;;;;;;;18.17;66.06;102792.30;2333506;76;49631;-74
2023/02/12 04:05:56;;;;;;;;;;;;;;;18.13;66.14;102805.09;2339425;76;50365;-74
2023/02/12 04:08:58;;;;;;;;;;;;;;;18.10;66.44;102804.50;2339679;76;50423;-74
2023/02/12 04:12:14;;;;;;;;;;;;;;;18.04;66.95;102805.38;2340296;76;51429;-72
2023/02/12 04:15:20;;;;;;;;;;;;;;;18.01;66.88;102802.11;2307602;76;53036;-75
2023/02/12 04:18:24;;;;;;;;;;;;;;;18.01;66.78;102804.30;2339321;76;50442;-75
2023/02/12 04:21:27;;;;;;;;;;;;;;;18.10;66.50;102803.16;2339422;76;50020;-75
2023/02/12 04:24:46;;;;;;;;;;;;;;;18.18;66.24;102808.73;2339050;76;50296;-75
2023/02/12 04:27:56;;;;;;;;;;;;;;;18.26;65.96;102810.27;2333675;76;50130;-75
2023/02/12 04:31:04;;;;;;;;;;;;;;;18.28;65.79;102806.98;2339391;76;51459;-74
2023/02/12 04:34:13;;;;;;;;;;;;;;;18.27;65.82;102822.22;2339252;76;51631;-74
2023/02/12 04:37:16;;;;;;;;;;;;;;;18.26;65.80;102818.31;2339567;76;51500;-76
2023/02/12 04:40:18;;;;;;;;;;;;;;;18.22;65.82;102815.55;2334401;76;51249;-73
2023/02/12 04:43:27;;;;;;;;;;;;;;;18.21;65.93;102817.38;2329385;75;51484;-73
2023/02/12 04:46:28;;;;;;;;;;;;;;;18.15;65.99;102811.67;2322679;76;50380;-73
2023/02/12 04:49:30;;;;;;;;;;;;;;;18.11;66.21;102814.23;2322761;76;50416;-73
2023/02/12 04:52:31;;;;;;;;;;;;;;;18.03;67.07;102817.55;2300757;76;50837;-73
2023/02/12 04:55:33;;;;;;;;;;;;;;;17.99;67.07;102819.64;2322768;76;50329;-74
2023/02/12 04:58:36;;;;;;;;;;;;;;;18.01;66.82;102809.65;2320071;76;50345;-74
2023/02/12 05:01:38;;;;;;;;;;;;;;;18.04;66.74;102813.41;2283343;76;51553;-76
2023/02/12 05:04:39;;;;;;;;;;;;;;;17.88;60.13;102817.00;2284753;76;50972;-75
2023/02/12 05:07:41;;;;;;;;;;;;;;;17.63;58.00;102821.62;2283418;77;51570;-75
2023/02/12 05:10:43;;;;;;;;;;;;;;;17.44;56.79;102821.38;2309840;76;51558;-75
2023/02/12 05:13:46;;;;;;;;;;;;;;;17.32;55.49;102817.03;2304776;76;51446;-75
2023/02/12 05:16:47;;;;;;;;;;;;;;;17.22;55.22;102820.06;2279365;77;51597;-75
2023/02/12 05:19:49;;;;;;;;;;;;;;;17.09;54.39;102821.52;2305335;76;50256;-75
2023/02/12 05:22:52;;;;;;;;;;;;;;;16.96;53.50;102821.12;2300950;77;50324;-74
2023/02/12 05:25:53;;;;;;;;;;;;;;;16.84;53.42;102819.40;2301046;76;51452;-75
2023/02/12 05:28:55;;;;;;;;;;;;;;;16.78;53.67;102823.05;2305229;76;52510;-74
2023/02/12 05:31:57;;;;;;;;;;;;;;;16.84;56.04;102825.23;2305012;76;50560;-74
2023/02/12 05:34:58;;;;;;;;;;;;;;;16.92;56.61;102829.50;2301037;76;51551;-74
2023/02/12 05:38:00;;;;;;;;;;;;;;;16.99;57.32;102832.08;2301095;76;50691;-75
2023/02/12 05:41:03;;;;;;;;;;;;;;;17.05;57.23;102838.77;2317714;76;50633;-75
2023/02/12 05:44:05;;;;;;;;;;;;;;;17.11;57.32;102841.83;2334461;75;51665;-74
2023/02/12 05:47:07;;;;;;;;;;;;;;;17.20;57.55;102844.25;2345265;76;51487;-74
2023/02/12 05:50:08;;;;;;;;;;;;;;;17.29;57.76;102849.36;2345334;76;51422;-76
2023/02/12 05:53:10;;;;;;;;;;;;;;;17.36;57.95;102842.55;2285255;76;51710;-76
2023/02/12 05:56:15;;;;;;;;;;;;;;;17.43;58.07;102853.14;2304739;76;50326;-76
2023/02/12 05:59:19;;;;;;;;;;;;;;;17.51;58.23;102848.52;2303106;76;51327;-76
2023/02/12 06:02:20;;;;;;;;;;;;;;;17.61;58.22;102845.47;2302980;77;51472;-75
2023/02/12 06:05:22;;;;;;;;;;;;;;;17.68;58.28;102841.83;2284015;77;49567;-76
2023/02/12 06:08:23;;;;;;;;;;;;;;;17.75;58.32;102846.57;2309890;75;50219;-76
2023/02/12 06:11:25;;;;;;;;;;;;;;;17.86;58.28;102847.56;2309922;76;51503;-76
2023/02/12 06:14:27;;;;;;;;;;;;;;;17.96;58.29;102848.02;2302998;77;51509;-76
2023/02/12 06:17:28;;;;;;;;;;;;;;;18.04;58.29;102849.58;2309880;76;52440;-75
2023/02/12 06:20:30;;;;;;;;;;;;;;;18.15;58.22;102851.86;2310010;76;51456;-75
2023/02/12 06:23:31;;;;;;;;;;;;;;;18.27;58.16;102864.25;2323814;76;50387;-75
2023/02/12 06:26:33;;;;;;;;;;;;;;;18.39;58.07;102864.55;2344471;76;50399;-75
2023/02/12 06:29:34;;;;;;;;;;;;;;;18.50;57.94;102877.93;2335726;76;50086;-75
2023/02/12 06:32:36;;;;;;;;;;;;;;;18.55;57.96;102884.26;2324689;76;50721;-75
2023/02/12 06:35:38;;;;;;;;;;;;;;;18.54;58.15;102891.08;2344823;76;51412;-75
2023/02/12 06:38:39;;;;;;;;;;;;;;;18.50;58.37;102891.34;2344760;76;50761;-75
2023/02/12 06:41:41;;;;;;;;;;;;;;;18.47;58.53;102899.64;2299028;76;50874;-74
2023/02/12 06:44:42;;;;;;;;;;;;;;;18.42;58.76;102891.59;2317844;76;51427;-75
2023/02/12 06:47:44;;;;;;;;;;;;;;;18.39;58.93;102899.89;2319764;76;51474;-75
2023/02/12 06:50:46;;;;;;;;;;;;;;;18.35;59.12;102898.47;2315085;75;51398;-76
2023/02/12 06:53:47;;;;;;;;;;;;;;;18.36;59.31;102909.04;2286125;76;52042;-75
2023/02/12 06:56:49;;;;;;;;;;;;;;;18.41;59.30;102913.53;2326128;76;51530;-76
2023/02/12 06:59:50;;;;;;;;;;;;;;;18.41;59.27;102913.53;2326236;76;50326;-76
2023/02/12 07:02:53;;;;;;;;;;;;;;;18.38;59.46;102918.30;2326047;76;50271;-76
2023/02/12 07:05:54;;;;;;;;;;;;;;;18.36;59.57;102917.57;2326028;76;51660;-77
2023/02/12 07:08:56;;;;;;;;;;;;;;;18.32;59.71;102945.63;2333912;76;51419;-75
2023/02/12 07:11:58;;;;;;;;;;;;;;;18.30;59.86;102931.48;2333826;76;51431;-74
2023/02/12 07:15:00;;;;;;;;;;;;;;;18.25;60.11;102934.54;2334039;76;50682;-74
2023/02/12 07:18:01;;;;;;;;;;;;;;;18.19;60.28;102936.39;2299950;76;53140;-74
2023/02/12 07:21:03;;;;;;;;;;;;;;;18.21;60.52;102935.29;2326172;76;51483;-75
2023/02/12 07:24:05;;;;;;;;;;;;;;;18.27;60.46;102939.30;2326704;75;50809;-74
2023/02/12 07:27:06;;;;;;;;;;;;;;;18.31;60.53;102943.91;2285415;76;50746;-74
2023/02/12 07:30:08;;;;;;;;;;;;;;;18.36;60.46;102947.91;2252622;78;51506;-74
2023/02/12 07:33:10;;;;;;;;;;;;;;;18.39;60.67;102944.97;2285238;78;50409;-74
2023/02/12 07:36:12;;;;;;;;;;;;;;;18.46;60.71;102952.88;2285474;78;50245;-74
2023/02/12 07:39:14;;;;;;;;;;;;;;;18.56;60.38;102942.75;2285349;77;51467;-74
2023/02/12 07:42:15;;;;;;;;;;;;;;;18.55;60.25;102943.70;2252609;78;50947;-73
2023/02/12 07:45:17;;;;;;;;;;;;;;;18.53;60.24;102948.36;2300148;77;51523;-75
2023/02/12 07:48:19;;;;;;;;;;;;;;;18.50;60.20;102948.13;2310911;76;51395;-74
2023/02/12 07:51:20;;;;;;;;;;;;;;;18.47;60.14;102953.25;2316746;75;50588;-74
2023/02/12 07:54:22;;;;;;;;;;;;;;;18.43;60.21;102951.80;2312876;75;52637;-74
2023/02/12 07:57:23;;;;;;;;;;;;;;;18.38;60.26;102958.02;2349107;75;51475;-77
2023/02/12 08:00:25;;;;;;;;;;;;;;;18.33;60.34;102965.58;2354818;75;51411;-75
2023/02/12 08:03:30;;;;;;;;;;;;;;;18.32;60.37;102970.59;2348818;75;50975;-75
2023/02/12 08:06:32;;;;;;;;;;;;;;;18.36;60.46;102966.66;2348611;75;49569;-74
2023/02/12 08:09:34;;;;;;;;;;;;;;;18.41;60.39;102971.16;2348359;74;51529;-74
2023/02/12 08:12:36;;;;;;;;;;;;;;;18.42;60.35;102971.55;2353658;75;51478;-75
2023/02/12 08:15:37;;;;;;;;;;;;;;;18.40;60.34;102972.16;2354069;75;50737;-74
2023/02/12 08:18:39;;;;;;;;;;;;;;;18.38;60.40;102972.76;2348540;75;52339;-74
2023/02/12 08:21:40;;;;;;;;;;;;;;;18.34;60.47;102974.00;2363162;75;51442;-74
2023/02/12 08:24:42;;;;;;;;;;;;;;;18.31;60.61;102980.92;2341193;75;50220;-74
2023/02/12 08:27:43;;;;;;;;;;;;;;;18.28;60.68;102978.50;2348304;74;50250;-74
2023/02/12 08:30:45;;;;;;;;;;;;;;;18.22;60.80;102984.38;2319664;75;53093;-74
2023/02/12 08:33:47;;;;;;;;;;;;;;;18.23;60.81;102988.25;2326946;75;50750;-74
2023/02/12 08:36:49;;;;;;;;;;;;;;;18.24;60.99;102991.80;2343816;74;50339;-74
2023/02/12 08:39:50;;;;;;;;;;;;;;;18.26;61.34;103001.89;2356314;74;51552;-74
2023/02/12 08:42:52;;;;;;;;;;;;;;;18.27;61.77;103002.27;2356281;75;50233;-72
2023/02/12 08:45:56;;;;;;;;;;;;;;;18.33;61.80;103007.13;2346736;74;51513;-74
2023/02/12 08:49:04;;;;;;;;;;;;;;;18.37;61.85;103003.70;2340986;76;22299;-73
2023/02/12 08:52:06;;;;;;;;;;;;;;;18.37;62.01;103011.73;2334581;74;51618;-73
2023/02/12 08:55:07;;;;;;;;;;;;;;;18.34;62.27;103017.35;2328430;75;51681;-75
2023/02/12 08:58:09;;;;;;;;;;;;;;;18.33;62.55;103023.20;2316692;76;51438;-74
2023/02/12 09:01:11;;;;;;;;;;;;;;;18.29;62.90;103027.13;2322526;76;51467;-74
2023/02/12 09:04:16;;;;;;;;;;;;;;;18.26;63.03;103025.55;2322036;76;50365;-76
2023/02/12 09:07:17;;;;;;;;;;;;;;;18.24;63.27;103022.63;2322541;76;22706;-75
2023/02/12 09:10:19;;;;;;;;;;;;;;;18.22;63.37;103029.92;2296246;76;50367;-75
2023/02/12 09:13:20;;;;;;;;;;;;;;;18.21;63.33;103029.55;2286767;76;52143;-75
2023/02/12 09:16:22;;;;;;;;;;;;;;;18.26;62.84;103035.39;2260950;77;51190;-75
2023/02/12 09:19:24;;;;;;;;;;;;;;;18.33;62.42;103032.59;2262179;76;51730;-74
2023/02/12 09:22:25;;;;;;;;;;;;;;;18.33;62.21;103041.97;2300965;76;51452;-74
2023/02/12 09:25:27;;;;;;;;;;;;;;;18.32;62.08;103048.31;2341578;75;50871;-74
2023/02/12 09:28:28;;;;;;;;;;;;;;;18.29;62.00;103055.27;2337027;75;50709;-74
2023/02/12 09:31:30;;;;;;;;;;;;;;;18.25;62.00;103047.09;2344014;76;51438;-75
2023/02/12 09:34:35;;;;;;;;;;;;;;;18.24;61.98;103048.93;2336866;75;51470;-75
2023/02/12 09:37:37;;;;;;;;;;;;;;;18.21;62.02;103055.88;2343961;76;50632;-75
2023/02/12 09:40:40;;;;;;;;;;;;;;;18.20;61.98;103057.33;2344001;76;50281;-74
2023/02/12 09:43:51;;;;;;;;;;;;;;;18.16;62.08;103058.53;2311598;76;50226;-74
2023/02/12 09:46:57;;;;;;;;;;;;;;;18.12;62.17;103051.73;2322850;76;51544;-74
2023/02/12 09:50:16;;;;;;;;;;;;;;;18.17;62.14;103058.42;2321494;76;51512;-74
2023/02/12 09:53:19;;;;;;;;;;;;;;;18.22;62.01;103061.59;2308660;76;50670;-74
2023/02/12 09:56:20;;;;;;;;;;;;;;;18.31;61.75;103053.30;2291519;76;52443;-74
2023/02/12 09:59:26;;;;;;;;;;;;;;;18.40;61.53;103065.12;2321448;75;51429;-74
2023/02/12 10:02:29;;;;;;;;;;;;;;;18.43;61.36;103067.55;2319394;76;51449;-75
2023/02/12 10:05:33;;;;;;;;;;;;;;;18.40;61.29;103066.47;2319665;76;51476;-74
2023/02/12 10:08:36;;;;;;;;;;;;;;;18.37;61.31;103065.34;2319786;76;22669;-74
2023/02/12 10:11:40;;;;;;;;;;;;;;;18.33;61.33;103072.80;2319571;76;51553;-74
2023/02/12 10:14:43;;;;;;;;;;;;;;;18.30;61.38;103065.00;2319497;76;50302;-75
2023/02/12 10:17:49;;;;;;;;;;;;;;;18.26;61.45;103059.05;2319497;76;50717;-74
2023/02/12 10:21:05;;;;;;;;;;;;;;;18.21;61.52;103065.72;2295055;76;52386;-75
2023/02/12 10:24:24;;;;;;;;;;;;;;;18.18;61.59;103061.95;2314078;75;51443;-73
2023/02/12 10:27:30;;;;;;;;;;;;;;;18.17;61.66;103065.62;2321387;76;51426;-74
2023/02/12 10:30:48;;;;;;;;;;;;;;;18.21;61.69;103063.04;2314838;75;51609;-73
2023/02/12 10:33:51;;;;;;;;;;;;;;;18.26;61.53;103065.75;2323374;76;52401;-75
2023/02/12 10:36:54;;;;;;;;;;;;;;;18.33;61.36;103068.77;2321461;76;50250;-73
2023/02/12 10:39:57;;;;;;;;;;;;;;;18.40;61.12;103063.29;2321328;75;50694;-75
2023/02/12 10:42:59;;;;;;;;;;;;;;;18.41;60.99;103060.97;2321197;75;51592;-74
2023/02/12 10:46:01;;;;;;;;;;;;;;;18.40;60.93;103060.61;2337846;75;52655;-75
2023/02/12 10:49:02;;;;;;;;;;;;;;;18.36;60.97;103060.48;2336091;75;51440;-75
2023/02/12 10:52:12;;;;;;;;;;;;;;;18.33;61.00;103059.39;2343241;75;51289;-74
2023/02/12 10:55:31;;;;;;;;;;;;;;;18.28;61.09;103061.58;2350550;74;50310;-74
2023/02/12 10:58:32;;;;;;;;;;;;;;;18.25;61.17;103063.17;2347327;75;52559;-75
2023/02/12 11:01:34;;;;;;;;;;;;;;;18.19;61.28;103060.99;2356277;75;51494;-74
2023/02/12 11:04:36;;;;;;;;;;;;;;;18.16;61.42;103062.09;2356108;75;50645;-75
2023/02/12 11:07:39;;;;;;;;;;;;;;;18.16;61.39;103062.09;2356259;75;51565;-74
2023/02/12 11:10:41;;;;;;;;;;;;;;;18.19;61.40;103060.99;2335617;75;52745;-75
2023/02/12 11:13:47;;;;;;;;;;;;;;;18.26;61.27;103062.19;2355991;75;50707;-74
2023/02/12 11:16:56;;;;;;;;;;;;;;;18.33;61.08;103063.41;2356716;75;50283;-75
2023/02/12 11:20:02;;;;;;;;;;;;;;;18.39;60.79;103052.68;2356858;74;50321;-73
2023/02/12 11:23:05;;;;;;;;;;;;;;;18.39;60.70;103063.41;2323643;75;51174;-73
2023/02/12 11:26:20;;;;;;;;;;;;;;;18.35;60.70;103061.47;2337729;75;51473;-75
2023/02/12 11:29:25;;;;;;;;;;;;;;;18.33;60.64;103054.03;2341226;75;51473;-74
2023/02/12 11:32:27;;;;;;;;;;;;;;;18.31;60.67;103053.78;2336093;75;51573;-76
2023/02/12 11:35:34;;;;;;;;;;;;;;;18.24;60.82;103050.77;2343174;75;51385;-74
2023/02/12 11:38:33;;;;;;;;;;;;;;;18.20;60.90;103053.31;2356732;75;22198;-75
2023/02/12 11:41:39;;;;;;;;;;;;;;;18.16;61.18;103053.17;2356380;74;51583;-75
2023/02/12 11:44:41;;;;;;;;;;;;;;;18.14;61.20;103045.27;2356278;75;50482;-76
2023/02/12 11:47:44;;;;;;;;;;;;;;;18.16;61.18;103045.13;2324859;75;51602;-76
2023/02/12 11:50:49;;;;;;;;;;;;;;;18.24;61.10;103045.41;2323496;76;22269;-76
2023/02/12 11:53:51;;;;;;;;;;;;;;;18.33;60.96;103044.65;2319816;76;50441;-75
2023/02/12 11:56:54;;;;;;;;;;;;;;;18.36;60.96;103043.05;2300599;77;52374;-75
2023/02/12 11:59:55;;;;;;;;;;;;;;;18.35;60.94;103041.36;2304722;76;51272;-74
2023/02/12 12:03:15;;;;;;;;;;;;;;;18.34;60.90;103041.02;2306481;76;50176;-75
2023/02/12 12:06:22;;;;;;;;;;;;;;;18.33;60.97;103041.97;2321408;76;50308;-75
2023/02/12 12:09:31;;;;;;;;;;;;;;;18.32;61.36;103048.31;2321332;76;51502;-75
2023/02/12 12:12:34;;;;;;;;;;;;;;;18.28;61.58;103040.14;2309054;75;52449;-75
2023/02/12 12:22:36;;;;;;;;;;;;;;;18.20;62.00;103034.55;2321736;76;22238;-74
2023/02/12 12:25:40;;;;;;;;;;;;;;;18.28;61.79;103030.77;2309372;76;50452;-73
2023/02/12 12:28:46;;;;;;;;;;;;;;;18.35;61.64;103037.34;2321361;75;50395;-75
2023/02/12 12:31:48;;;;;;;;;;;;;;;18.43;61.31;103036.73;2321550;76;51007;-74
2023/02/12 12:34:50;;;;;;;;;;;;;;;18.42;61.28;103021.14;2321542;76;50664;-74
2023/02/12 12:37:53;;;;;;;;;;;;;;;18.38;61.37;103015.64;2321835;75;50401;-75
2023/02/12 12:40:59;;;;;;;;;;;;;;;18.33;61.51;103015.16;2322725;76;51601;-75
2023/02/12 12:44:15;;;;;;;;;;;;;;;18.30;61.15;103015.91;2321577;75;51490;-73
2023/02/12 12:47:18;;;;;;;;;;;;;;;18.26;60.88;103009.92;2335339;74;51572;-74
2023/02/12 12:50:41;;;;;;;;;;;;;;;18.23;60.92;103000.80;2345049;76;51553;-74
2023/02/12 12:53:57;;;;;;;;;;;;;;;18.21;60.31;103006.77;2311554;76;51212;-74
2023/02/12 12:57:00;;;;;;;;;;;;;;;18.24;60.31;103006.55;2341397;75;50323;-74
2023/02/12 13:00:08;;;;;;;;;;;;;;;18.28;60.34;103006.15;2332191;76;50387;-74
2023/02/12 13:03:20;;;;;;;;;;;;;;;18.31;60.38;103007.73;2319245;76;51521;-74
2023/02/12 13:06:23;;;;;;;;;;;;;;;18.36;60.46;103002.00;2343147;75;51583;-74
2023/02/12 13:09:26;;;;;;;;;;;;;;;18.43;60.40;103002.72;2341579;76;50376;-74
2023/02/12 13:12:30;;;;;;;;;;;;;;;18.51;60.36;103012.83;2320945;76;50647;-73
2023/02/12 13:15:42;;;;;;;;;;;;;;;18.53;60.46;103008.20;2327799;76;50445;-73
2023/02/12 13:18:48;;;;;;;;;;;;;;;18.52;60.60;103008.31;2312881;76;51196;-74
2023/02/12 13:21:52;;;;;;;;;;;;;;;18.52;60.69;103010.98;2336576;76;50599;-74
2023/02/12 13:24:58;;;;;;;;;;;;;;;18.53;60.93;103007.34;2332303;76;51390;-73
2023/02/12 13:27:59;;;;;;;;;;;;;;;18.51;61.18;103012.83;2340917;76;51615;-74
2023/02/12 13:31:01;;;;;;;;;;;;;;;18.49;61.46;103009.41;2326383;75;51003;-75
2023/02/12 13:34:04;;;;;;;;;;;;;;;18.46;61.71;103011.00;2334898;75;51416;-75
2023/02/12 13:37:05;;;;;;;;;;;;;;;18.42;62.06;103002.38;2329802;76;50402;-75
2023/02/12 13:40:08;;;;;;;;;;;;;;;18.39;62.34;103002.59;2319159;76;50228;-73
2023/02/12 13:43:12;;;;;;;;;;;;;;;18.38;62.32;102996.88;2324890;76;51921;-74
2023/02/12 13:46:15;;;;;;;;;;;;;;;18.35;62.49;102991.78;2344524;76;51465;-74
2023/02/12 13:49:35;;;;;;;;;;;;;;;18.39;62.52;102994.55;2344677;74;51571;-75
2023/02/12 13:52:41;;;;;;;;;;;;;;;18.41;62.42;102985.91;2343818;76;51481;-75
2023/02/12 13:56:03;;;;;;;;;;;;;;;18.31;62.64;102987.62;2313694;76;51749;-75
2023/02/12 13:59:06;;;;;;;;;;;;;;;18.32;62.62;102987.17;2344814;76;51343;-74
2023/02/12 14:02:26;;;;;;;;;;;;;;;18.30;62.59;102987.28;2342820;75;50784;-75
2023/02/12 14:05:28;;;;;;;;;;;;;;;18.27;62.68;102984.36;2322710;76;51464;-73
2023/02/12 14:08:31;;;;;;;;;;;;;;;18.28;62.73;102985.20;2346911;75;52491;-75
2023/02/12 14:11:33;;;;;;;;;;;;;;;18.23;62.90;102996.28;2340799;75;51571;-73
2023/02/12 14:14:39;;;;;;;;;;;;;;;18.33;62.64;102984.84;2344456;76;51428;-74
2023/02/12 14:17:41;;;;;;;;;;;;;;;18.40;62.46;102984.22;2331134;74;51453;-73
2023/02/12 14:20:43;;;;;;;;;;;;;;;18.40;62.41;102984.70;2317530;75;51381;-73
2023/02/12 14:23:49;;;;;;;;;;;;;;;18.37;62.38;102981.79;2350801;75;51672;-76
2023/02/12 14:26:51;;;;;;;;;;;;;;;18.35;62.44;102985.57;2345811;75;22372;-74
2023/02/12 14:30:12;;;;;;;;;;;;;;;18.34;62.34;102984.72;2345600;76;50574;-76
2023/02/12 14:33:18;;;;;;;;;;;;;;;18.36;62.31;102989.45;2325373;76;51008;-75
2023/02/12 14:36:37;;;;;;;;;;;;;;;18.31;62.38;102990.80;2345334;76;50432;-75
2023/02/12 14:39:37;;;;;;;;;;;;;;;18.30;62.46;102993.13;2344630;75;22439;-75
2023/02/12 14:42:40;;;;;;;;;;;;;;;18.32;62.36;102996.55;2344449;76;51560;-76
2023/02/12 14:45:42;;;;;;;;;;;;;;;18.26;62.41;102992.51;2324546;76;52377;-75
2023/02/12 14:48:51;;;;;;;;;;;;;;;18.28;62.33;102988.73;2326210;75;51541;-76
2023/02/12 14:52:13;;;;;;;;;;;;;;;18.31;62.29;102986.29;2302673;76;50715;-75
2023/02/12 14:55:28;;;;;;;;;;;;;;;18.32;62.19;102990.69;2300894;76;50672;-76
2023/02/12 14:58:30;;;;;;;;;;;;;;;18.32;62.14;102989.35;2324002;76;51709;-74
2023/02/12 15:01:33;;;;;;;;;;;;;;;18.28;62.14;102986.05;2321533;76;51518;-74
2023/02/12 15:04:37;;;;;;;;;;;;;;;18.28;62.20;102983.86;2321081;76;50668;-74
2023/02/12 15:07:41;;;;;;;;;;;;;;;18.29;62.27;102988.27;2321322;76;51352;-74
2023/02/12 15:10:49;;;;;;;;;;;;;;;18.29;62.32;102982.91;2304977;76;51006;-74
2023/02/12 15:14:07;;;;;;;;;;;;;;;18.25;62.47;102986.30;2321123;75;50279;-74
2023/02/12 15:17:13;;;;;;;;;;;;;;;18.19;62.64;102980.61;2320744;75;51548;-74
2023/02/12 15:20:22;;;;;;;;;;;;;;;18.20;62.70;102983.64;2321707;76;50433;-74
2023/02/12 15:23:31;;;;;;;;;;;;;;;18.17;62.79;102981.20;2323362;76;50776;-74
2023/02/12 15:26:34;;;;;;;;;;;;;;;18.28;62.62;102990.56;2271918;76;50450;-74
2023/02/12 15:29:40;;;;;;;;;;;;;;;18.28;62.59;102994.58;2271732;75;50415;-74
2023/02/12 15:32:45;;;;;;;;;;;;;;;18.30;62.52;102998.49;2271163;77;50459;-75
2023/02/12 15:35:45;;;;;;;;;;;;;;;18.28;62.46;102996.77;2271347;78;22154;-73
2023/02/12 15:38:52;;;;;;;;;;;;;;;18.30;62.49;102997.16;2271221;77;50221;-74
2023/02/12 15:41:53;;;;;;;;;;;;;;;18.27;62.48;103001.78;2273006;77;50270;-75
2023/02/12 15:45:02;;;;;;;;;;;;;;;18.25;62.53;102998.86;2272373;77;50435;-75
2023/02/12 15:48:08;;;;;;;;;;;;;;;18.25;62.45;102993.50;2252046;78;51282;-74
2023/02/12 15:51:30;;;;;;;;;;;;;;;18.24;62.40;102993.14;2273097;76;51497;-75
2023/02/12 15:54:32;;;;;;;;;;;;;;;18.22;62.50;103001.79;2315093;76;50681;-75